createdAt,value
2023-01-22T00:01:56.955Z,48.95
2023-01-22T00:04:45.849Z,48.98
2023-01-22T00:07:35.948Z,49.16
2023-01-22T00:10:24.578Z,49.15
2023-01-22T00:13:13.095Z,48.87
2023-01-22T00:16:01.817Z,48.80
2023-01-22T00:18:50.485Z,49.26
2023-01-22T00:21:39.195Z,48.96
2023-01-22T00:24:29.241Z,49.20
2023-01-22T00:27:17.887Z,49.20
2023-01-22T00:30:07.858Z,48.93
2023-01-22T00:32:56.472Z,49.20
2023-01-22T00:35:45.395Z,48.85
2023-01-22T00:38:34.107Z,49.15
2023-01-22T00:41:24.246Z,49.25
2023-01-22T00:44:12.888Z,48.94
2023-01-22T00:47:01.610Z,49.11
2023-01-22T00:49:50.154Z,49.15
2023-01-22T00:52:38.774Z,49.00
2023-01-22T00:55:27.474Z,49.45
2023-01-22T00:58:17.454Z,49.23
2023-01-22T01:01:07.097Z,49.21
2023-01-22T01:03:55.826Z,48.94
2023-01-22T01:06:44.421Z,48.91
2023-01-22T01:09:33.087Z,49.32
2023-01-22T01:12:21.732Z,49.25
2023-01-22T01:15:12.828Z,49.17
2023-01-22T01:18:01.803Z,49.00
2023-01-22T01:20:55.465Z,48.97
2023-01-22T01:23:44.517Z,49.11
2023-01-22T01:26:33.493Z,49.21
2023-01-22T01:29:22.092Z,48.90
2023-01-22T01:32:12.132Z,49.34
2023-01-22T01:35:00.737Z,49.27
2023-01-22T01:37:49.414Z,49.44
2023-01-22T01:40:43.641Z,49.31
2023-01-22T01:43:32.535Z,49.12
2023-01-22T01:46:23.758Z,48.95
2023-01-22T01:49:27.025Z,49.59
2023-01-22T01:52:16.591Z,49.16
2023-01-22T01:55:06.145Z,48.97
2023-01-22T01:57:55.572Z,49.07
2023-01-22T02:00:45.812Z,49.63
2023-01-22T02:03:34.755Z,49.30
2023-01-22T02:06:24.782Z,49.63
2023-01-22T02:09:15.626Z,49.17
2023-01-22T02:12:04.899Z,49.43
2023-01-22T02:14:53.720Z,49.00
2023-01-22T02:17:42.582Z,49.30
2023-01-22T02:20:36.501Z,49.25
2023-01-22T02:23:25.799Z,49.21
2023-01-22T02:26:14.446Z,49.13
2023-01-22T02:29:03.094Z,49.31
2023-01-22T02:31:51.770Z,49.40
2023-01-22T02:34:40.444Z,49.37
2023-01-22T02:37:30.382Z,49.14
2023-01-22T02:40:19.498Z,49.21
2023-01-22T02:43:08.231Z,49.36
2023-01-22T02:45:56.829Z,49.69
2023-01-22T02:51:34.024Z,49.86
2023-01-22T02:54:24.045Z,49.59
2023-01-22T02:57:12.671Z,49.44
2023-01-22T03:00:01.273Z,49.36
2023-01-22T03:02:49.866Z,49.13
2023-01-22T03:05:38.441Z,49.08
2023-01-22T03:08:27.244Z,49.67
2023-01-22T03:11:17.462Z,50.00
2023-01-22T03:14:24.298Z,49.86
2023-01-22T03:17:30.651Z,49.67
2023-01-22T03:20:36.931Z,49.84
2023-01-22T03:23:27.885Z,49.44
2023-01-22T03:26:18.068Z,49.69
2023-01-22T03:29:06.654Z,49.50
2023-01-22T03:31:55.276Z,49.12
2023-01-22T03:34:44.080Z,49.57
2023-01-22T03:37:32.690Z,49.36
2023-01-22T03:40:21.276Z,49.36
2023-01-22T03:43:11.265Z,49.19
2023-01-22T03:46:07.292Z,49.13
2023-01-22T03:48:55.948Z,49.21
2023-01-22T03:51:45.180Z,49.37
2023-01-22T03:54:33.889Z,49.38
2023-01-22T03:57:22.494Z,49.23
2023-01-22T04:00:14.156Z,49.24
2023-01-22T04:03:02.709Z,49.30
2023-01-22T04:05:51.303Z,48.96
2023-01-22T04:08:43.007Z,49.05
2023-01-22T04:11:31.666Z,49.25
2023-01-22T04:14:20.245Z,49.01
2023-01-22T04:17:10.420Z,48.94
2023-01-22T04:19:59.016Z,48.96
2023-01-22T04:22:49.026Z,49.22
2023-01-22T04:25:37.952Z,49.06
2023-01-22T04:28:26.691Z,48.95
2023-01-22T04:31:15.449Z,49.43
2023-01-22T04:34:05.562Z,49.13
2023-01-22T04:36:54.194Z,49.35
2023-01-22T04:39:42.769Z,49.42
2023-01-22T04:42:31.359Z,49.01
2023-01-22T04:45:20.177Z,49.40
2023-01-22T04:48:10.985Z,49.54
2023-01-22T04:51:01.144Z,49.41
2023-01-22T04:53:49.796Z,49.40
2023-01-22T04:56:38.395Z,49.32
2023-01-22T04:59:26.973Z,49.47
2023-01-22T05:02:15.612Z,49.58
2023-01-22T05:05:04.386Z,49.44
2023-01-22T05:07:54.397Z,49.08
2023-01-22T05:10:43.115Z,49.50
2023-01-22T05:13:31.947Z,49.59
2023-01-22T05:16:20.511Z,49.04
2023-01-22T05:19:09.121Z,49.15
2023-01-22T05:21:57.762Z,49.35
2023-01-22T05:24:47.764Z,49.58
2023-01-22T05:27:36.449Z,49.23
2023-01-22T05:30:24.992Z,49.41
2023-01-22T05:33:13.663Z,49.50
2023-01-22T05:36:03.579Z,49.65
2023-01-22T05:38:52.158Z,49.80
2023-01-22T05:41:42.193Z,49.94
2023-01-22T05:44:32.776Z,49.94
2023-01-22T05:47:22.081Z,49.85
2023-01-22T05:50:11.905Z,49.72
2023-01-22T05:53:00.577Z,49.76
2023-01-22T05:55:49.154Z,49.24
2023-01-22T05:58:39.165Z,49.40
2023-01-22T06:01:28.145Z,49.73
2023-01-22T06:04:16.746Z,49.74
2023-01-22T06:07:05.370Z,49.24
2023-01-22T06:09:53.923Z,49.93
2023-01-22T06:12:42.531Z,50.00
2023-01-22T06:15:32.610Z,49.41
2023-01-22T06:18:21.476Z,49.50
2023-01-22T06:21:10.713Z,49.97
2023-01-22T06:23:59.313Z,49.37
2023-01-22T06:26:48.005Z,49.82
2023-01-22T06:29:38.624Z,49.71
2023-01-22T06:32:29.886Z,49.66
2023-01-22T06:35:18.611Z,49.49
2023-01-22T06:38:07.403Z,49.17
2023-01-22T06:40:56.477Z,49.39
2023-01-22T06:43:45.125Z,49.70
2023-01-22T06:46:33.771Z,49.30
2023-01-22T06:49:23.790Z,49.26
2023-01-22T06:52:12.414Z,49.81
2023-01-22T06:55:01.009Z,49.27
2023-01-22T06:57:49.684Z,49.37
2023-01-22T07:00:38.280Z,49.20
2023-01-22T07:03:26.985Z,49.59
2023-01-22T07:06:18.827Z,49.63
2023-01-22T07:09:07.470Z,49.30
2023-01-22T07:11:57.423Z,50.06
2023-01-22T07:14:46.089Z,49.78
2023-01-22T07:17:34.695Z,49.31
2023-01-22T07:20:24.434Z,49.35
2023-01-22T07:23:14.493Z,49.91
2023-01-22T07:26:03.168Z,49.31
2023-01-22T07:28:51.792Z,49.73
2023-01-22T07:31:40.430Z,49.90
2023-01-22T07:34:29.134Z,49.39
2023-01-22T07:37:17.798Z,49.75
2023-01-22T07:40:09.176Z,50.09
2023-01-22T07:42:58.000Z,49.96
2023-01-22T07:45:47.015Z,49.68
2023-01-22T07:48:35.975Z,49.53
2023-01-22T07:51:24.690Z,49.38
2023-01-22T07:54:13.358Z,49.75
2023-01-22T07:57:03.526Z,50.14
2023-01-22T07:59:52.143Z,49.57
2023-01-22T08:02:42.188Z,49.94
2023-01-22T08:05:30.783Z,50.31
2023-01-22T08:08:21.332Z,49.81
2023-01-22T08:11:10.247Z,50.04
2023-01-22T08:14:00.250Z,50.08
2023-01-22T08:16:48.961Z,50.09
2023-01-22T08:19:37.588Z,50.01
2023-01-22T08:22:26.231Z,49.77
2023-01-22T08:25:14.931Z,49.57
2023-01-22T08:30:59.460Z,49.29
2023-01-22T08:33:48.209Z,49.59
2023-01-22T08:36:36.919Z,49.28
2023-01-22T08:39:25.552Z,49.22
2023-01-22T08:42:14.130Z,48.99
2023-01-22T08:45:02.739Z,49.39
2023-01-22T08:47:58.029Z,49.90
2023-01-22T08:50:46.743Z,49.43
2023-01-22T08:53:35.461Z,49.15
2023-01-22T08:56:24.024Z,49.81
2023-01-22T08:59:12.626Z,49.36
2023-01-22T09:02:01.369Z,49.97
2023-01-22T09:04:51.394Z,49.36
2023-01-22T09:07:39.946Z,49.57
2023-01-22T09:10:28.644Z,49.34
2023-01-22T09:13:17.312Z,49.35
2023-01-22T09:16:10.716Z,49.61
2023-01-22T09:18:59.304Z,49.77
2023-01-22T09:21:49.260Z,49.54
2023-01-22T09:24:37.797Z,49.41
2023-01-22T09:27:26.478Z,49.53
2023-01-22T09:30:15.577Z,49.27
2023-01-22T09:33:04.277Z,49.21
2023-01-22T09:35:53.243Z,49.29
2023-01-22T09:38:43.271Z,49.49
2023-01-22T09:41:34.597Z,49.36
2023-01-22T09:44:33.841Z,49.22
2023-01-22T09:47:29.469Z,49.27
2023-01-22T09:50:21.048Z,49.35
2023-01-22T09:53:13.566Z,49.50
2023-01-22T09:56:07.092Z,49.35
2023-01-22T09:58:56.901Z,49.37
2023-01-22T10:01:47.800Z,49.52
2023-01-22T10:04:38.115Z,49.31
2023-01-22T10:07:36.986Z,49.76
2023-01-22T10:10:28.210Z,49.65
2023-01-22T10:13:20.962Z,49.39
2023-01-22T10:16:09.970Z,49.61
2023-01-22T10:19:02.599Z,49.21
2023-01-22T10:21:53.369Z,49.23
2023-01-22T10:24:41.966Z,49.33
2023-01-22T10:27:35.998Z,48.99
2023-01-22T10:30:27.334Z,49.01
2023-01-22T10:33:20.295Z,47.85
2023-01-22T10:36:09.411Z,47.09
2023-01-22T10:39:06.051Z,47.30
2023-01-22T10:42:02.437Z,47.47
2023-01-22T10:44:51.367Z,47.35
2023-01-22T10:47:41.413Z,46.96
2023-01-22T10:50:29.981Z,46.75
2023-01-22T10:53:21.751Z,46.67
2023-01-22T10:56:12.987Z,46.51
2023-01-22T10:59:05.279Z,46.38
2023-01-22T11:01:59.176Z,46.40
2023-01-22T11:04:49.211Z,46.42
2023-01-22T11:07:37.909Z,46.63
2023-01-22T11:10:32.875Z,46.52
2023-01-22T11:13:23.686Z,46.34
2023-01-22T11:16:16.323Z,46.72
2023-01-22T11:19:08.143Z,46.82
2023-01-22T11:21:58.690Z,46.47
2023-01-22T11:24:48.536Z,46.58
2023-01-22T11:27:59.725Z,45.52
2023-01-22T11:31:10.391Z,45.02
2023-01-22T11:34:22.521Z,44.79
2023-01-22T11:37:15.371Z,44.79
2023-01-22T11:40:04.436Z,44.87
2023-01-22T11:43:09.215Z,45.21
2023-01-22T11:46:11.191Z,44.83
2023-01-22T11:49:06.666Z,44.95
2023-01-22T11:52:05.418Z,45.05
2023-01-22T11:55:06.084Z,44.93
2023-01-22T11:58:00.432Z,44.95
2023-01-22T12:00:55.977Z,45.97
2023-01-22T12:04:19.454Z,46.14
2023-01-22T12:07:30.724Z,45.63
2023-01-22T12:10:35.121Z,45.54
2023-01-22T12:13:36.585Z,45.34
2023-01-22T12:16:31.276Z,44.88
2023-01-22T12:19:32.282Z,44.93
2023-01-22T12:22:30.829Z,45.68
2023-01-22T12:25:34.228Z,45.95
2023-01-22T12:28:27.397Z,46.20
2023-01-22T12:31:20.826Z,44.98
2023-01-22T12:34:15.313Z,43.68
2023-01-22T12:37:05.827Z,43.42
2023-01-22T12:40:05.649Z,42.79
2023-01-22T12:43:00.909Z,42.63
2023-01-22T12:45:55.507Z,42.48
2023-01-22T12:48:49.663Z,41.91
2023-01-22T12:51:41.286Z,41.93
2023-01-22T12:54:32.312Z,41.72
2023-01-22T12:57:25.400Z,41.91
2023-01-22T13:00:34.211Z,41.45
2023-01-22T13:03:31.587Z,41.31
2023-01-22T13:06:22.629Z,41.56
2023-01-22T13:09:25.898Z,41.12
2023-01-22T13:12:27.701Z,41.13
2023-01-22T13:15:19.962Z,41.09
2023-01-22T13:18:21.256Z,41.30
2023-01-22T13:21:10.969Z,41.78
2023-01-22T13:24:01.168Z,42.49
2023-01-22T13:26:55.226Z,43.55
2023-01-22T13:29:45.759Z,44.33
2023-01-22T13:32:34.419Z,44.11
2023-01-22T13:35:24.374Z,44.49
2023-01-22T13:38:20.793Z,44.94
2023-01-22T13:41:13.585Z,45.09
2023-01-22T13:44:02.672Z,45.34
2023-01-22T13:46:51.958Z,45.58
2023-01-22T13:49:44.234Z,45.72
2023-01-22T13:52:34.270Z,45.72
2023-01-22T13:55:24.442Z,46.03
2023-01-22T13:58:33.033Z,45.90
2023-01-22T14:01:30.182Z,45.93
2023-01-22T14:04:34.437Z,46.11
2023-01-22T14:07:27.964Z,45.89
2023-01-22T14:10:19.708Z,46.02
2023-01-22T14:13:10.618Z,46.21
2023-01-22T14:16:06.764Z,46.34
2023-01-22T14:18:55.381Z,45.67
2023-01-22T14:21:44.281Z,44.33
2023-01-22T14:24:32.853Z,44.30
2023-01-22T14:27:23.754Z,45.33
2023-01-22T14:30:14.865Z,45.45
2023-01-22T14:33:03.541Z,44.32
2023-01-22T14:35:52.223Z,44.44
2023-01-22T14:38:40.924Z,45.32
2023-01-22T14:41:29.661Z,45.55
2023-01-22T14:44:20.888Z,45.35
2023-01-22T14:47:09.815Z,45.44
2023-01-22T14:49:58.609Z,45.75
2023-01-22T14:52:47.605Z,45.50
2023-01-22T14:55:36.928Z,45.82
2023-01-22T14:58:26.867Z,46.04
2023-01-22T15:01:17.985Z,45.98
2023-01-22T15:04:06.861Z,46.56
2023-01-22T15:06:55.593Z,46.24
2023-01-22T15:09:44.648Z,45.15
2023-01-22T15:12:33.599Z,44.53
2023-01-22T15:15:26.515Z,44.61
2023-01-22T15:18:16.652Z,44.84
2023-01-22T15:21:06.466Z,44.56
2023-01-22T15:23:55.580Z,44.96
2023-01-22T15:26:44.378Z,45.16
2023-01-22T15:29:36.165Z,45.15
2023-01-22T15:32:25.868Z,44.77
2023-01-22T15:35:15.937Z,44.71
2023-01-22T15:38:05.357Z,44.95
2023-01-22T15:41:03.960Z,44.96
2023-01-22T15:43:54.375Z,45.03
2023-01-22T15:46:44.703Z,44.97
2023-01-22T15:49:33.354Z,44.58
2023-01-22T15:52:23.339Z,44.88
2023-01-22T15:55:12.087Z,44.75
2023-01-22T15:58:00.864Z,44.48
2023-01-22T16:00:49.477Z,44.80
2023-01-22T16:03:38.126Z,44.91
2023-01-22T16:06:28.675Z,45.12
2023-01-22T16:09:18.808Z,44.87
2023-01-22T16:12:09.062Z,44.91
2023-01-22T16:14:57.677Z,44.99
2023-01-22T16:17:47.597Z,44.65
2023-01-22T16:20:36.282Z,44.80
2023-01-22T16:23:24.898Z,44.72
2023-01-22T16:26:17.370Z,45.00
2023-01-22T16:29:07.135Z,44.74
2023-01-22T16:31:55.859Z,45.02
2023-01-22T16:34:44.484Z,45.04
2023-01-22T16:37:33.113Z,45.04
2023-01-22T16:40:21.699Z,44.92
2023-01-22T16:43:11.738Z,44.93
2023-01-22T16:46:00.437Z,45.03
2023-01-22T16:48:49.530Z,45.38
2023-01-22T16:51:39.576Z,44.66
2023-01-22T16:54:29.513Z,45.15
2023-01-22T16:57:19.303Z,45.51
2023-01-22T17:00:11.390Z,45.29
2023-01-22T17:03:00.347Z,45.37
2023-01-22T17:05:49.814Z,45.38
2023-01-22T17:08:38.369Z,45.50
2023-01-22T17:11:27.120Z,45.27
2023-01-22T17:14:16.625Z,45.35
2023-01-22T17:17:07.831Z,45.30
2023-01-22T17:19:56.481Z,45.41
2023-01-22T17:22:45.115Z,45.23
2023-01-22T17:25:33.784Z,45.16
2023-01-22T17:28:22.612Z,45.32
2023-01-22T17:31:12.627Z,45.53
2023-01-22T17:34:04.115Z,45.56
2023-01-22T17:36:52.736Z,45.80
2023-01-22T17:39:43.002Z,45.56
2023-01-22T17:42:31.814Z,45.71
2023-01-22T17:45:21.163Z,45.58
2023-01-22T17:48:09.947Z,45.34
2023-01-22T17:51:05.260Z,45.65
2023-01-22T17:53:55.611Z,45.95
2023-01-22T17:56:47.225Z,45.81
2023-01-22T17:59:35.815Z,45.82
2023-01-22T18:02:24.599Z,45.94
2023-01-22T18:05:14.080Z,46.23
2023-01-22T18:08:04.100Z,46.30
2023-01-22T18:10:53.621Z,46.23
2023-01-22T18:13:42.688Z,46.08
2023-01-22T18:16:33.000Z,45.91
2023-01-22T18:19:23.411Z,46.22
2023-01-22T18:22:12.031Z,46.27
2023-01-22T18:25:01.987Z,46.25
2023-01-22T18:27:50.806Z,46.42
2023-01-22T18:30:39.555Z,46.62
2023-01-22T18:33:28.318Z,47.06
2023-01-22T18:36:19.002Z,47.59
2023-01-22T18:39:09.704Z,47.52
2023-01-22T18:41:59.870Z,47.43
2023-01-22T18:44:48.626Z,47.79
2023-01-22T18:47:37.857Z,47.70
2023-01-22T18:50:26.478Z,48.14
2023-01-22T18:53:16.082Z,47.96
2023-01-22T18:56:06.991Z,48.02
2023-01-22T18:58:57.285Z,48.04
2023-01-22T19:01:51.234Z,48.00
2023-01-22T19:04:39.950Z,48.12
2023-01-22T19:07:28.544Z,48.18
2023-01-22T19:10:17.274Z,48.26
2023-01-22T19:13:05.888Z,48.59
2023-01-22T19:15:56.017Z,48.73
2023-01-22T19:18:46.614Z,48.33
2023-01-22T19:21:35.471Z,48.28
2023-01-22T19:24:26.733Z,47.98
2023-01-22T19:27:17.460Z,48.15
2023-01-22T19:30:07.254Z,47.96
2023-01-22T19:32:57.305Z,48.11
2023-01-22T19:35:49.528Z,47.79
2023-01-22T19:38:38.382Z,47.74
2023-01-22T19:41:27.566Z,47.47
2023-01-22T19:44:16.445Z,48.19
2023-01-22T19:47:05.392Z,48.25
2023-01-22T19:49:55.416Z,48.20
2023-01-22T19:52:44.023Z,48.57
2023-01-22T19:55:37.220Z,48.47
2023-01-22T19:58:26.390Z,48.29
2023-01-22T20:01:15.777Z,48.64
2023-01-22T20:04:06.967Z,48.65
2023-01-22T20:07:01.062Z,48.53
2023-01-22T20:09:49.691Z,48.97
2023-01-22T20:12:38.376Z,48.91
2023-01-22T20:15:27.205Z,48.94
2023-01-22T20:18:15.802Z,48.91
2023-01-22T20:21:04.812Z,48.80
2023-01-22T20:23:54.847Z,48.77
2023-01-22T20:26:43.517Z,48.72
2023-01-22T20:29:32.210Z,48.81
2023-01-22T20:32:20.835Z,49.27
2023-01-22T20:35:11.697Z,49.36
2023-01-22T20:38:00.465Z,49.16
2023-01-22T20:40:50.559Z,49.59
2023-01-22T20:43:40.081Z,48.95
2023-01-22T20:46:32.276Z,49.21
2023-01-22T20:49:20.903Z,49.34
2023-01-22T20:52:09.470Z,49.39
2023-01-22T20:55:01.807Z,48.82
2023-01-22T20:57:52.783Z,48.87
2023-01-22T21:00:41.584Z,48.52
2023-01-22T21:03:31.037Z,48.77
2023-01-22T21:06:20.832Z,48.48
2023-01-22T21:09:10.852Z,48.73
2023-01-22T21:12:00.114Z,48.67
2023-01-22T21:14:54.440Z,48.79
2023-01-22T21:17:43.158Z,43.05
2023-01-22T21:20:31.808Z,37.08
2023-01-22T21:23:20.428Z,33.29
2023-01-22T21:26:10.465Z,31.76
2023-01-22T21:29:00.933Z,35.60
2023-01-22T21:31:52.324Z,40.27
2023-01-22T21:34:40.933Z,42.90
2023-01-22T21:37:29.601Z,44.42
2023-01-22T21:40:19.206Z,44.90
2023-01-22T21:43:26.080Z,45.89
2023-01-22T21:46:25.196Z,46.21
2023-01-22T21:49:20.918Z,47.10
2023-01-22T21:52:09.529Z,47.08
2023-01-22T21:54:59.125Z,47.34
2023-01-22T21:57:47.748Z,47.83
2023-01-22T22:00:36.344Z,47.63
2023-01-22T22:03:24.960Z,48.21
2023-01-22T22:06:15.425Z,47.79
2023-01-22T22:09:06.117Z,48.54
2023-01-22T22:11:56.918Z,48.60
2023-01-22T22:14:45.479Z,48.41
2023-01-22T22:17:34.192Z,49.00
2023-01-22T22:20:22.843Z,48.60
2023-01-22T22:23:12.891Z,48.86
2023-01-22T22:26:01.655Z,48.83
2023-01-22T22:28:50.252Z,49.08
2023-01-22T22:31:39.464Z,48.88
2023-01-22T22:34:28.129Z,48.42
2023-01-22T22:37:17.030Z,48.68
2023-01-22T22:40:08.038Z,48.91
2023-01-22T22:42:56.650Z,49.30
2023-01-22T22:45:45.301Z,49.58
2023-01-22T22:48:36.732Z,49.41
2023-01-22T22:51:27.019Z,49.56
2023-01-22T22:54:17.653Z,49.27
2023-01-22T22:57:07.678Z,49.61
2023-01-22T22:59:56.224Z,49.19
2023-01-22T23:02:44.920Z,49.23
2023-01-22T23:05:38.037Z,49.59
2023-01-22T23:08:26.665Z,49.73
2023-01-22T23:11:16.949Z,49.81
2023-01-22T23:14:08.049Z,49.74
2023-01-22T23:16:57.672Z,49.98
2023-01-22T23:19:46.334Z,49.85
2023-01-22T23:22:34.949Z,50.15
2023-01-22T23:25:23.580Z,50.18
2023-01-22T23:28:12.138Z,50.11
2023-01-22T23:31:07.283Z,50.20
2023-01-22T23:33:56.501Z,49.65
2023-01-22T23:36:46.844Z,50.37
2023-01-22T23:39:35.498Z,49.89
2023-01-22T23:42:24.222Z,50.29
2023-01-22T23:45:14.271Z,50.02
2023-01-22T23:48:04.521Z,50.11
2023-01-22T23:50:54.677Z,50.26
2023-01-22T23:53:45.343Z,50.23
2023-01-22T23:56:34.222Z,50.04
2023-01-22T23:59:23.564Z,50.28
